In Rescue
 
Open Full Screen Window  High Contrast Mode
Wind Gusting 00 knots
03
November 14, 2019 1:58 PM EST
Weather Information
Wind Direction
  200 °
Wind Speed
  03 kt (3 mph)
Wind Gust
  00 kt (0 mph)
Altimeter
30.18 in
Visibility
10 SM
Temperature
02° C
36° F
Dewpoint
-07° C
19° F
Humidity
52%
1hr Rain Fall
00.01 in.
24hr Rain Fall
00.01 in.
Sky Condition
Clear
VFR

METAR KPOV 141858Z AUTO 20003KT 10SM CLR 02/M07 A3018 RMK AO2 P0001 T00191070 PWINO

FAA Disclaimer: The data displayed is for advisory purposes only and is not to be used for flight planning or operations.